sensor_id;sensor_type;location;lat;lon;timestamp;P1;durP1;ratioP1;P2;durP2;ratioP2
64031;SDS011;50278;47.796;11.968;2022-09-09T00:03:47;3.85;;;0.63;;
64031;SDS011;50278;47.796;11.968;2022-09-09T00:06:23;3.22;;;0.60;;
64031;SDS011;50278;47.796;11.968;2022-09-09T00:11:36;1.40;;;0.57;;
64031;SDS011;50278;47.796;11.968;2022-09-09T00:14:18;1.65;;;0.50;;
64031;SDS011;50278;47.796;11.968;2022-09-09T00:16:53;2.70;;;0.80;;
64031;SDS011;50278;47.796;11.968;2022-09-09T00:22:36;2.30;;;0.80;;
64031;SDS011;50278;47.796;11.968;2022-09-09T00:25:01;1.23;;;0.60;;
64031;SDS011;50278;47.796;11.968;2022-09-09T00:27:45;1.73;;;0.60;;
64031;SDS011;50278;47.796;11.968;2022-09-09T00:32:54;4.75;;;0.50;;
64031;SDS011;50278;47.796;11.968;2022-09-09T00:35:27;0.85;;;0.52;;
64031;SDS011;50278;47.796;11.968;2022-09-09T00:43:38;1.67;;;0.80;;
64031;SDS011;50278;47.796;11.968;2022-09-09T00:57:51;3.60;;;0.90;;
64031;SDS011;50278;47.796;11.968;2022-09-09T01:00:19;5.43;;;0.75;;
64031;SDS011;50278;47.796;11.968;2022-09-09T01:11:05;4.28;;;0.80;;
64031;SDS011;50278;47.796;11.968;2022-09-09T01:13:40;2.13;;;0.90;;
64031;SDS011;50278;47.796;11.968;2022-09-09T01:16:08;2.63;;;0.88;;
64031;SDS011;50278;47.796;11.968;2022-09-09T01:18:43;2.50;;;0.73;;
64031;SDS011;50278;47.796;11.968;2022-09-09T01:27:11;1.90;;;0.70;;
64031;SDS011;50278;47.796;11.968;2022-09-09T01:29:40;1.63;;;0.60;;
64031;SDS011;50278;47.796;11.968;2022-09-09T01:35:03;0.60;;;0.50;;
64031;SDS011;50278;47.796;11.968;2022-09-09T01:37:30;1.20;;;0.75;;
64031;SDS011;50278;47.796;11.968;2022-09-09T01:39:56;2.63;;;0.90;;
64031;SDS011;50278;47.796;11.968;2022-09-09T01:42:22;1.92;;;0.95;;
64031;SDS011;50278;47.796;11.968;2022-09-09T01:44:47;2.55;;;1.00;;
64031;SDS011;50278;47.796;11.968;2022-09-09T01:47:14;2.15;;;1.20;;
64031;SDS011;50278;47.796;11.968;2022-09-09T01:49:57;2.47;;;0.85;;
64031;SDS011;50278;47.796;11.968;2022-09-09T01:52:26;2.17;;;0.93;;
64031;SDS011;50278;47.796;11.968;2022-09-09T01:54:52;3.20;;;0.85;;
64031;SDS011;50278;47.796;11.968;2022-09-09T01:57:33;1.23;;;0.60;;
64031;SDS011;50278;47.796;11.968;2022-09-09T02:00:10;2.60;;;0.60;;
64031;SDS011;50278;47.796;11.968;2022-09-09T02:02:57;0.50;;;0.30;;
64031;SDS011;50278;47.796;11.968;2022-09-09T02:08:43;0.93;;;0.40;;
64031;SDS011;50278;47.796;11.968;2022-09-09T02:11:16;1.50;;;0.40;;
64031;SDS011;50278;47.796;11.968;2022-09-09T02:13:54;0.93;;;0.50;;
64031;SDS011;50278;47.796;11.968;2022-09-09T02:16:44;1.98;;;0.50;;
64031;SDS011;50278;47.796;11.968;2022-09-09T02:19:32;1.40;;;0.45;;
64031;SDS011;50278;47.796;11.968;2022-09-09T02:22:07;2.00;;;0.30;;
64031;SDS011;50278;47.796;11.968;2022-09-09T02:24:33;1.10;;;0.50;;
64031;SDS011;50278;47.796;11.968;2022-09-09T02:27:27;1.48;;;0.40;;
64031;SDS011;50278;47.796;11.968;2022-09-09T02:29:54;1.65;;;0.60;;
64031;SDS011;50278;47.796;11.968;2022-09-09T02:32:37;1.88;;;0.50;;
64031;SDS011;50278;47.796;11.968;2022-09-09T02:35:08;1.92;;;0.50;;
64031;SDS011;50278;47.796;11.968;2022-09-09T02:37:38;2.53;;;0.80;;
64031;SDS011;50278;47.796;11.968;2022-09-09T02:40:06;1.40;;;0.57;;
64031;SDS011;50278;47.796;11.968;2022-09-09T02:45:07;1.65;;;0.70;;
64031;SDS011;50278;47.796;11.968;2022-09-09T02:47:34;0.95;;;0.52;;
64031;SDS011;50278;47.796;11.968;2022-09-09T02:50:44;2.60;;;0.80;;
64031;SDS011;50278;47.796;11.968;2022-09-09T02:53:24;2.78;;;0.80;;
64031;SDS011;50278;47.796;11.968;2022-09-09T02:56:14;2.17;;;0.80;;
64031;SDS011;50278;47.796;11.968;2022-09-09T02:58:44;2.40;;;1.00;;
64031;SDS011;50278;47.796;11.968;2022-09-09T03:01:10;1.85;;;0.95;;
64031;SDS011;50278;47.796;11.968;2022-09-09T03:03:36;1.42;;;0.60;;
64031;SDS011;50278;47.796;11.968;2022-09-09T03:06:06;2.45;;;0.60;;
64031;SDS011;50278;47.796;11.968;2022-09-09T03:08:32;1.77;;;1.02;;
64031;SDS011;50278;47.796;11.968;2022-09-09T03:10:59;3.63;;;0.90;;
64031;SDS011;50278;47.796;11.968;2022-09-09T03:13:30;1.52;;;0.75;;
64031;SDS011;50278;47.796;11.968;2022-09-09T03:15:56;1.30;;;0.70;;
64031;SDS011;50278;47.796;11.968;2022-09-09T03:18:22;1.35;;;0.80;;
64031;SDS011;50278;47.796;11.968;2022-09-09T03:20:50;1.52;;;0.77;;
64031;SDS011;50278;47.796;11.968;2022-09-09T03:23:18;1.27;;;0.70;;
64031;SDS011;50278;47.796;11.968;2022-09-09T03:25:51;2.70;;;0.73;;
64031;SDS011;50278;47.796;11.968;2022-09-09T03:28:22;0.82;;;0.60;;
64031;SDS011;50278;47.796;11.968;2022-09-09T03:30:49;1.23;;;0.75;;
64031;SDS011;50278;47.796;11.968;2022-09-09T03:33:15;2.67;;;0.85;;
64031;SDS011;50278;47.796;11.968;2022-09-09T03:35:46;1.55;;;0.30;;
64031;SDS011;50278;47.796;11.968;2022-09-09T03:38:16;1.13;;;0.73;;
64031;SDS011;50278;47.796;11.968;2022-09-09T03:40:52;0.85;;;0.35;;
64031;SDS011;50278;47.796;11.968;2022-09-09T03:43:23;0.70;;;0.40;;
64031;SDS011;50278;47.796;11.968;2022-09-09T03:45:51;3.17;;;0.47;;
64031;SDS011;50278;47.796;11.968;2022-09-09T03:48:18;0.80;;;0.32;;
64031;SDS011;50278;47.796;11.968;2022-09-09T03:50:48;1.27;;;0.40;;
64031;SDS011;50278;47.796;11.968;2022-09-09T03:53:16;1.50;;;0.88;;
64031;SDS011;50278;47.796;11.968;2022-09-09T03:55:46;1.25;;;0.50;;
64031;SDS011;50278;47.796;11.968;2022-09-09T03:58:15;1.67;;;0.40;;
64031;SDS011;50278;47.796;11.968;2022-09-09T04:00:43;0.88;;;0.30;;
64031;SDS011;50278;47.796;11.968;2022-09-09T04:03:17;1.08;;;0.40;;
64031;SDS011;50278;47.796;11.968;2022-09-09T04:05:43;2.33;;;0.30;;
64031;SDS011;50278;47.796;11.968;2022-09-09T04:08:09;1.02;;;0.40;;
64031;SDS011;50278;47.796;11.968;2022-09-09T04:10:36;0.70;;;0.30;;
64031;SDS011;50278;47.796;11.968;2022-09-09T04:13:04;1.95;;;0.38;;
64031;SDS011;50278;47.796;11.968;2022-09-09T04:15:30;1.98;;;0.55;;
64031;SDS011;50278;47.796;11.968;2022-09-09T04:17:57;1.90;;;0.40;;
64031;SDS011;50278;47.796;11.968;2022-09-09T04:20:22;1.25;;;0.40;;
64031;SDS011;50278;47.796;11.968;2022-09-09T04:22:48;0.80;;;0.30;;
64031;SDS011;50278;47.796;11.968;2022-09-09T04:25:13;1.77;;;0.20;;
64031;SDS011;50278;47.796;11.968;2022-09-09T04:27:40;1.02;;;0.22;;
64031;SDS011;50278;47.796;11.968;2022-09-09T04:30:06;1.10;;;0.30;;
64031;SDS011;50278;47.796;11.968;2022-09-09T04:32:33;1.63;;;0.40;;
64031;SDS011;50278;47.796;11.968;2022-09-09T04:34:59;1.33;;;0.43;;
64031;SDS011;50278;47.796;11.968;2022-09-09T04:37:25;2.97;;;0.75;;
64031;SDS011;50278;47.796;11.968;2022-09-09T04:39:51;1.02;;;0.60;;
64031;SDS011;50278;47.796;11.968;2022-09-09T04:42:16;2.10;;;0.90;;
64031;SDS011;50278;47.796;11.968;2022-09-09T04:44:44;1.42;;;0.68;;
64031;SDS011;50278;47.796;11.968;2022-09-09T04:47:10;1.40;;;0.80;;
64031;SDS011;50278;47.796;11.968;2022-09-09T04:49:36;1.20;;;0.75;;
64031;SDS011;50278;47.796;11.968;2022-09-09T04:52:03;1.42;;;0.70;;
64031;SDS011;50278;47.796;11.968;2022-09-09T04:54:31;1.83;;;0.80;;
64031;SDS011;50278;47.796;11.968;2022-09-09T04:56:57;3.28;;;1.50;;
64031;SDS011;50278;47.796;11.968;2022-09-09T04:59:23;2.85;;;1.20;;
64031;SDS011;50278;47.796;11.968;2022-09-09T05:01:53;2.17;;;1.00;;
64031;SDS011;50278;47.796;11.968;2022-09-09T05:04:20;2.78;;;0.93;;
64031;SDS011;50278;47.796;11.968;2022-09-09T05:06:46;1.77;;;0.73;;
64031;SDS011;50278;47.796;11.968;2022-09-09T05:09:12;2.75;;;1.67;;
64031;SDS011;50278;47.796;11.968;2022-09-09T05:11:38;1.95;;;1.17;;
64031;SDS011;50278;47.796;11.968;2022-09-09T05:14:09;2.30;;;0.85;;
64031;SDS011;50278;47.796;11.968;2022-09-09T05:16:36;1.75;;;1.40;;
64031;SDS011;50278;47.796;11.968;2022-09-09T05:19:02;3.35;;;0.70;;
64031;SDS011;50278;47.796;11.968;2022-09-09T05:21:38;3.50;;;1.00;;
64031;SDS011;50278;47.796;11.968;2022-09-09T05:24:03;1.95;;;0.90;;
64031;SDS011;50278;47.796;11.968;2022-09-09T05:26:29;2.17;;;0.85;;
64031;SDS011;50278;47.796;11.968;2022-09-09T05:28:56;4.50;;;1.25;;
64031;SDS011;50278;47.796;11.968;2022-09-09T05:31:22;1.25;;;0.80;;
64031;SDS011;50278;47.796;11.968;2022-09-09T05:33:50;3.20;;;0.77;;
64031;SDS011;50278;47.796;11.968;2022-09-09T05:36:16;2.35;;;1.42;;
64031;SDS011;50278;47.796;11.968;2022-09-09T05:38:45;2.03;;;0.90;;
64031;SDS011;50278;47.796;11.968;2022-09-09T05:41:12;2.30;;;0.70;;
64031;SDS011;50278;47.796;11.968;2022-09-09T05:43:43;2.15;;;0.70;;
64031;SDS011;50278;47.796;11.968;2022-09-09T05:46:11;3.25;;;0.47;;
64031;SDS011;50278;47.796;11.968;2022-09-09T05:48:40;1.42;;;0.40;;
64031;SDS011;50278;47.796;11.968;2022-09-09T05:51:08;1.33;;;0.70;;
64031;SDS011;50278;47.796;11.968;2022-09-09T05:53:37;0.70;;;0.50;;
64031;SDS011;50278;47.796;11.968;2022-09-09T05:56:04;2.10;;;0.45;;
64031;SDS011;50278;47.796;11.968;2022-09-09T05:58:33;0.95;;;0.60;;
64031;SDS011;50278;47.796;11.968;2022-09-09T06:01:03;2.15;;;0.60;;
64031;SDS011;50278;47.796;11.968;2022-09-09T06:03:34;2.90;;;0.75;;
64031;SDS011;50278;47.796;11.968;2022-09-09T06:06:02;2.53;;;0.63;;
64031;SDS011;50278;47.796;11.968;2022-09-09T06:08:33;1.45;;;0.60;;
64031;SDS011;50278;47.796;11.968;2022-09-09T06:11:03;2.42;;;0.60;;
64031;SDS011;50278;47.796;11.968;2022-09-09T06:13:33;2.45;;;0.55;;
64031;SDS011;50278;47.796;11.968;2022-09-09T06:15:59;1.38;;;0.50;;
64031;SDS011;50278;47.796;11.968;2022-09-09T06:18:25;3.10;;;0.60;;
64031;SDS011;50278;47.796;11.968;2022-09-09T06:23:32;1.92;;;0.90;;
64031;SDS011;50278;47.796;11.968;2022-09-09T06:28:34;4.30;;;1.00;;
64031;SDS011;50278;47.796;11.968;2022-09-09T06:31:02;3.95;;;1.10;;
64031;SDS011;50278;47.796;11.968;2022-09-09T06:33:35;3.40;;;1.00;;
64031;SDS011;50278;47.796;11.968;2022-09-09T06:36:05;2.83;;;1.20;;
64031;SDS011;50278;47.796;11.968;2022-09-09T06:38:31;1.20;;;1.00;;
64031;SDS011;50278;47.796;11.968;2022-09-09T06:40:58;1.63;;;1.23;;
64031;SDS011;50278;47.796;11.968;2022-09-09T06:43:25;2.05;;;1.30;;
64031;SDS011;50278;47.796;11.968;2022-09-09T06:46:03;2.47;;;1.10;;
64031;SDS011;50278;47.796;11.968;2022-09-09T06:48:32;1.50;;;0.80;;
64031;SDS011;50278;47.796;11.968;2022-09-09T06:53:37;2.88;;;1.00;;
64031;SDS011;50278;47.796;11.968;2022-09-09T06:58:35;1.75;;;1.10;;
64031;SDS011;50278;47.796;11.968;2022-09-09T07:01:06;2.22;;;1.10;;
64031;SDS011;50278;47.796;11.968;2022-09-09T07:03:33;2.35;;;1.00;;
64031;SDS011;50278;47.796;11.968;2022-09-09T07:05:59;3.38;;;0.70;;
64031;SDS011;50278;47.796;11.968;2022-09-09T07:08:26;2.47;;;0.63;;
64031;SDS011;50278;47.796;11.968;2022-09-09T07:10:53;3.13;;;0.93;;
64031;SDS011;50278;47.796;11.968;2022-09-09T07:13:28;1.55;;;0.80;;
64031;SDS011;50278;47.796;11.968;2022-09-09T07:15:54;1.70;;;1.05;;
64031;SDS011;50278;47.796;11.968;2022-09-09T07:18:20;2.63;;;0.90;;
64031;SDS011;50278;47.796;11.968;2022-09-09T07:20:53;2.95;;;0.88;;
64031;SDS011;50278;47.796;11.968;2022-09-09T07:23:20;2.05;;;1.27;;
64031;SDS011;50278;47.796;11.968;2022-09-09T07:25:46;2.72;;;1.10;;
64031;SDS011;50278;47.796;11.968;2022-09-09T07:28:14;2.80;;;0.82;;
64031;SDS011;50278;47.796;11.968;2022-09-09T07:30:40;2.47;;;0.55;;
64031;SDS011;50278;47.796;11.968;2022-09-09T07:33:06;1.00;;;0.65;;
64031;SDS011;50278;47.796;11.968;2022-09-09T07:35:32;1.08;;;0.32;;
64031;SDS011;50278;47.796;11.968;2022-09-09T07:37:58;1.70;;;0.60;;
64031;SDS011;50278;47.796;11.968;2022-09-09T07:40:26;2.35;;;0.90;;
64031;SDS011;50278;47.796;11.968;2022-09-09T07:42:52;3.50;;;1.08;;
64031;SDS011;50278;47.796;11.968;2022-09-09T07:45:18;2.03;;;1.08;;
64031;SDS011;50278;47.796;11.968;2022-09-09T07:47:44;5.82;;;2.17;;
64031;SDS011;50278;47.796;11.968;2022-09-09T07:50:10;3.65;;;1.27;;
64031;SDS011;50278;47.796;11.968;2022-09-09T07:52:37;1.73;;;0.73;;
64031;SDS011;50278;47.796;11.968;2022-09-09T07:55:04;0.98;;;0.47;;
64031;SDS011;50278;47.796;11.968;2022-09-09T07:57:32;1.10;;;0.68;;
64031;SDS011;50278;47.796;11.968;2022-09-09T07:59:57;5.88;;;0.85;;
64031;SDS011;50278;47.796;11.968;2022-09-09T08:02:23;1.20;;;0.40;;
64031;SDS011;50278;47.796;11.968;2022-09-09T08:04:50;2.42;;;1.23;;
64031;SDS011;50278;47.796;11.968;2022-09-09T08:07:18;2.35;;;1.10;;
64031;SDS011;50278;47.796;11.968;2022-09-09T08:09:50;4.80;;;1.55;;
64031;SDS011;50278;47.796;11.968;2022-09-09T08:12:23;2.10;;;1.40;;
64031;SDS011;50278;47.796;11.968;2022-09-09T08:14:49;2.35;;;1.20;;
64031;SDS011;50278;47.796;11.968;2022-09-09T08:17:16;2.17;;;1.20;;
64031;SDS011;50278;47.796;11.968;2022-09-09T08:19:43;4.20;;;1.30;;
64031;SDS011;50278;47.796;11.968;2022-09-09T08:22:13;2.83;;;0.57;;
64031;SDS011;50278;47.796;11.968;2022-09-09T08:24:39;2.85;;;0.73;;
64031;SDS011;50278;47.796;11.968;2022-09-09T08:27:06;1.10;;;0.70;;
64031;SDS011;50278;47.796;11.968;2022-09-09T08:29:32;2.15;;;1.20;;
64031;SDS011;50278;47.796;11.968;2022-09-09T08:31:58;1.20;;;0.60;;
64031;SDS011;50278;47.796;11.968;2022-09-09T08:34:25;1.75;;;0.50;;
64031;SDS011;50278;47.796;11.968;2022-09-09T08:36:53;2.95;;;0.50;;
64031;SDS011;50278;47.796;11.968;2022-09-09T08:39:22;1.38;;;0.32;;
64031;SDS011;50278;47.796;11.968;2022-09-09T08:50:27;2.58;;;0.43;;
64031;SDS011;50278;47.796;11.968;2022-09-09T08:55:45;1.13;;;0.30;;
64031;SDS011;50278;47.796;11.968;2022-09-09T08:58:12;1.05;;;0.30;;
64031;SDS011;50278;47.796;11.968;2022-09-09T09:00:48;0.50;;;0.40;;
64031;SDS011;50278;47.796;11.968;2022-09-09T09:12:10;1.65;;;0.30;;
64031;SDS011;50278;47.796;11.968;2022-09-09T09:14:42;0.57;;;0.17;;
64031;SDS011;50278;47.796;11.968;2022-09-09T09:17:11;0.90;;;0.40;;
64031;SDS011;50278;47.796;11.968;2022-09-09T09:19:40;1.25;;;0.38;;
64031;SDS011;50278;47.796;11.968;2022-09-09T09:22:22;0.98;;;0.30;;
64031;SDS011;50278;47.796;11.968;2022-09-09T09:25:03;0.68;;;0.30;;
64031;SDS011;50278;47.796;11.968;2022-09-09T09:28:01;1.73;;;0.65;;
64031;SDS011;50278;47.796;11.968;2022-09-09T09:30:38;1.30;;;0.40;;
64031;SDS011;50278;47.796;11.968;2022-09-09T09:35:53;1.73;;;0.55;;
64031;SDS011;50278;47.796;11.968;2022-09-09T09:38:23;2.42;;;0.20;;
64031;SDS011;50278;47.796;11.968;2022-09-09T09:40:55;0.43;;;0.20;;
64031;SDS011;50278;47.796;11.968;2022-09-09T09:43:33;2.17;;;0.50;;
64031;SDS011;50278;47.796;11.968;2022-09-09T09:46:04;1.25;;;0.40;;
64031;SDS011;50278;47.796;11.968;2022-09-09T09:48:31;0.90;;;0.40;;
64031;SDS011;50278;47.796;11.968;2022-09-09T09:51:08;2.97;;;0.55;;
64031;SDS011;50278;47.796;11.968;2022-09-09T09:53:38;0.80;;;0.20;;
64031;SDS011;50278;47.796;11.968;2022-09-09T09:56:06;1.05;;;0.30;;
64031;SDS011;50278;47.796;11.968;2022-09-09T10:01:24;1.70;;;0.22;;
64031;SDS011;50278;47.796;11.968;2022-09-09T10:03:51;0.80;;;0.30;;
64031;SDS011;50278;47.796;11.968;2022-09-09T10:06:28;0.65;;;0.20;;
64031;SDS011;50278;47.796;11.968;2022-09-09T10:08:55;1.55;;;0.40;;
64031;SDS011;50278;47.796;11.968;2022-09-09T10:11:24;1.45;;;0.30;;
64031;SDS011;50278;47.796;11.968;2022-09-09T10:14:19;0.57;;;0.28;;
64031;SDS011;50278;47.796;11.968;2022-09-09T10:19:32;2.03;;;0.45;;
64031;SDS011;50278;47.796;11.968;2022-09-09T10:22:04;2.03;;;0.38;;
64031;SDS011;50278;47.796;11.968;2022-09-09T10:32:49;0.70;;;0.20;;
64031;SDS011;50278;47.796;11.968;2022-09-09T10:36:19;0.85;;;0.30;;
64031;SDS011;50278;47.796;11.968;2022-09-09T10:38:31;0.40;;;0.20;;
64031;SDS011;50278;47.796;11.968;2022-09-09T10:41:11;0.32;;;0.20;;
64031;SDS011;50278;47.796;11.968;2022-09-09T10:44:06;1.48;;;0.30;;
64031;SDS011;50278;47.796;11.968;2022-09-09T10:46:51;1.70;;;0.35;;
64031;SDS011;50278;47.796;11.968;2022-09-09T10:49:46;0.65;;;0.52;;
64031;SDS011;50278;47.796;11.968;2022-09-09T10:52:42;1.40;;;0.32;;
64031;SDS011;50278;47.796;11.968;2022-09-09T10:55:24;1.05;;;0.38;;
64031;SDS011;50278;47.796;11.968;2022-09-09T10:57:56;2.10;;;0.30;;
64031;SDS011;50278;47.796;11.968;2022-09-09T11:00:27;0.95;;;0.30;;
64031;SDS011;50278;47.796;11.968;2022-09-09T11:03:04;1.08;;;0.40;;
64031;SDS011;50278;47.796;11.968;2022-09-09T11:05:36;0.70;;;0.20;;
64031;SDS011;50278;47.796;11.968;2022-09-09T11:08:26;0.45;;;0.28;;
64031;SDS011;50278;47.796;11.968;2022-09-09T11:14:01;1.30;;;0.13;;
64031;SDS011;50278;47.796;11.968;2022-09-09T11:16:34;0.45;;;0.20;;
64031;SDS011;50278;47.796;11.968;2022-09-09T11:21:59;0.73;;;0.20;;
64031;SDS011;50278;47.796;11.968;2022-09-09T11:24:43;0.60;;;0.10;;
64031;SDS011;50278;47.796;11.968;2022-09-09T11:32:44;0.35;;;0.15;;
64031;SDS011;50278;47.796;11.968;2022-09-09T11:35:39;0.50;;;0.10;;
64031;SDS011;50278;47.796;11.968;2022-09-09T11:38:44;0.95;;;0.55;;
64031;SDS011;50278;47.796;11.968;2022-09-09T11:41:16;0.30;;;0.20;;
64031;SDS011;50278;47.796;11.968;2022-09-09T11:46:19;2.22;;;1.27;;
64031;SDS011;50278;47.796;11.968;2022-09-09T11:52:24;1.02;;;0.50;;
64031;SDS011;50278;47.796;11.968;2022-09-09T11:55:11;1.70;;;0.55;;
64031;SDS011;50278;47.796;11.968;2022-09-09T11:57:57;0.80;;;0.40;;
64031;SDS011;50278;47.796;11.968;2022-09-09T12:00:47;0.70;;;0.35;;
64031;SDS011;50278;47.796;11.968;2022-09-09T12:06:11;0.73;;;0.30;;
64031;SDS011;50278;47.796;11.968;2022-09-09T12:09:12;1.33;;;0.30;;
64031;SDS011;50278;47.796;11.968;2022-09-09T12:11:43;0.43;;;0.30;;
64031;SDS011;50278;47.796;11.968;2022-09-09T12:14:19;1.08;;;0.40;;
64031;SDS011;50278;47.796;11.968;2022-09-09T12:17:08;0.55;;;0.35;;
64031;SDS011;50278;47.796;11.968;2022-09-09T12:19:40;1.25;;;0.40;;
64031;SDS011;50278;47.796;11.968;2022-09-09T12:27:12;2.05;;;0.63;;
64031;SDS011;50278;47.796;11.968;2022-09-09T12:29:54;0.88;;;0.35;;
64031;SDS011;50278;47.796;11.968;2022-09-09T12:32:42;0.60;;;0.30;;
64031;SDS011;50278;47.796;11.968;2022-09-09T12:37:46;1.70;;;0.45;;
64031;SDS011;50278;47.796;11.968;2022-09-09T12:42:46;0.50;;;0.20;;
64031;SDS011;50278;47.796;11.968;2022-09-09T12:45:16;0.60;;;0.35;;
64031;SDS011;50278;47.796;11.968;2022-09-09T12:47:50;0.57;;;0.25;;
64031;SDS011;50278;47.796;11.968;2022-09-09T12:50:33;1.00;;;0.30;;
64031;SDS011;50278;47.796;11.968;2022-09-09T12:53:12;1.15;;;0.80;;
64031;SDS011;50278;47.796;11.968;2022-09-09T12:55:51;2.55;;;2.30;;
64031;SDS011;50278;47.796;11.968;2022-09-09T12:58:30;1.90;;;1.00;;
64031;SDS011;50278;47.796;11.968;2022-09-09T13:00:58;1.65;;;0.88;;
64031;SDS011;50278;47.796;11.968;2022-09-09T13:03:25;2.72;;;1.15;;
64031;SDS011;50278;47.796;11.968;2022-09-09T13:05:51;1.27;;;0.70;;
64031;SDS011;50278;47.796;11.968;2022-09-09T13:08:18;2.00;;;1.00;;
64031;SDS011;50278;47.796;11.968;2022-09-09T13:10:49;2.33;;;1.10;;
64031;SDS011;50278;47.796;11.968;2022-09-09T13:13:26;0.85;;;0.40;;
64031;SDS011;50278;47.796;11.968;2022-09-09T13:16:01;1.70;;;0.50;;
64031;SDS011;50278;47.796;11.968;2022-09-09T13:18:30;1.77;;;0.50;;
64031;SDS011;50278;47.796;11.968;2022-09-09T13:20:58;0.70;;;0.40;;
64031;SDS011;50278;47.796;11.968;2022-09-09T13:23:32;1.38;;;0.70;;
64031;SDS011;50278;47.796;11.968;2022-09-09T13:26:53;2.70;;;1.00;;
64031;SDS011;50278;47.796;11.968;2022-09-09T13:28:51;2.65;;;0.50;;
64031;SDS011;50278;47.796;11.968;2022-09-09T13:31:19;1.38;;;0.60;;
64031;SDS011;50278;47.796;11.968;2022-09-09T13:33:47;1.05;;;0.50;;
64031;SDS011;50278;47.796;11.968;2022-09-09T13:36:12;1.33;;;0.50;;
64031;SDS011;50278;47.796;11.968;2022-09-09T13:41:20;1.67;;;0.88;;
64031;SDS011;50278;47.796;11.968;2022-09-09T13:44:30;1.10;;;0.70;;
64031;SDS011;50278;47.796;11.968;2022-09-09T13:47:00;2.03;;;0.63;;
64031;SDS011;50278;47.796;11.968;2022-09-09T13:49:31;5.93;;;1.43;;
64031;SDS011;50278;47.796;11.968;2022-09-09T13:52:14;1.83;;;0.85;;
64031;SDS011;50278;47.796;11.968;2022-09-09T13:54:42;0.98;;;0.90;;
64031;SDS011;50278;47.796;11.968;2022-09-09T13:57:29;2.38;;;0.90;;
64031;SDS011;50278;47.796;11.968;2022-09-09T13:59:55;1.75;;;0.80;;
64031;SDS011;50278;47.796;11.968;2022-09-09T14:02:21;0.85;;;0.47;;
64031;SDS011;50278;47.796;11.968;2022-09-09T14:04:48;1.73;;;0.90;;
64031;SDS011;50278;47.796;11.968;2022-09-09T14:07:16;1.00;;;0.60;;
64031;SDS011;50278;47.796;11.968;2022-09-09T14:09:42;1.38;;;0.40;;
64031;SDS011;50278;47.796;11.968;2022-09-09T14:12:09;1.02;;;0.60;;
64031;SDS011;50278;47.796;11.968;2022-09-09T14:14:36;2.67;;;0.60;;
64031;SDS011;50278;47.796;11.968;2022-09-09T14:17:01;1.95;;;1.05;;
64031;SDS011;50278;47.796;11.968;2022-09-09T14:19:28;0.82;;;0.55;;
64031;SDS011;50278;47.796;11.968;2022-09-09T14:21:54;0.77;;;0.47;;
64031;SDS011;50278;47.796;11.968;2022-09-09T14:24:19;1.50;;;0.60;;
64031;SDS011;50278;47.796;11.968;2022-09-09T14:26:45;2.83;;;0.68;;
64031;SDS011;50278;47.796;11.968;2022-09-09T14:29:10;1.98;;;0.80;;
64031;SDS011;50278;47.796;11.968;2022-09-09T14:31:35;1.70;;;0.95;;
64031;SDS011;50278;47.796;11.968;2022-09-09T14:34:01;2.03;;;0.85;;
64031;SDS011;50278;47.796;11.968;2022-09-09T14:36:26;3.22;;;0.88;;
64031;SDS011;50278;47.796;11.968;2022-09-09T14:38:52;4.18;;;3.58;;
64031;SDS011;50278;47.796;11.968;2022-09-09T14:41:18;2.20;;;2.00;;
64031;SDS011;50278;47.796;11.968;2022-09-09T14:43:45;2.13;;;1.60;;
64031;SDS011;50278;47.796;11.968;2022-09-09T14:46:13;1.83;;;1.20;;
64031;SDS011;50278;47.796;11.968;2022-09-09T14:48:40;0.90;;;0.70;;
64031;SDS011;50278;47.796;11.968;2022-09-09T14:51:10;1.55;;;0.80;;
64031;SDS011;50278;47.796;11.968;2022-09-09T14:56:07;1.40;;;0.65;;
64031;SDS011;50278;47.796;11.968;2022-09-09T14:58:35;2.10;;;0.68;;
64031;SDS011;50278;47.796;11.968;2022-09-09T15:01:01;1.77;;;0.60;;
64031;SDS011;50278;47.796;11.968;2022-09-09T15:03:28;3.05;;;0.60;;
64031;SDS011;50278;47.796;11.968;2022-09-09T15:05:53;2.05;;;0.77;;
64031;SDS011;50278;47.796;11.968;2022-09-09T15:08:19;0.90;;;0.60;;
64031;SDS011;50278;47.796;11.968;2022-09-09T15:10:44;1.10;;;0.60;;
64031;SDS011;50278;47.796;11.968;2022-09-09T15:13:10;1.73;;;0.80;;
64031;SDS011;50278;47.796;11.968;2022-09-09T15:15:35;3.08;;;0.77;;
64031;SDS011;50278;47.796;11.968;2022-09-09T15:18:01;1.17;;;0.70;;
64031;SDS011;50278;47.796;11.968;2022-09-09T15:20:26;1.70;;;1.10;;
64031;SDS011;50278;47.796;11.968;2022-09-09T15:22:52;1.20;;;0.80;;
64031;SDS011;50278;47.796;11.968;2022-09-09T15:25:17;1.38;;;1.00;;
64031;SDS011;50278;47.796;11.968;2022-09-09T15:27:43;3.65;;;1.20;;
64031;SDS011;50278;47.796;11.968;2022-09-09T15:30:09;1.75;;;1.20;;
64031;SDS011;50278;47.796;11.968;2022-09-09T15:32:35;1.75;;;0.98;;
64031;SDS011;50278;47.796;11.968;2022-09-09T15:35:00;1.17;;;0.73;;
64031;SDS011;50278;47.796;11.968;2022-09-09T15:37:26;2.58;;;0.80;;
64031;SDS011;50278;47.796;11.968;2022-09-09T15:39:52;2.17;;;1.00;;
64031;SDS011;50278;47.796;11.968;2022-09-09T15:42:17;1.27;;;0.80;;
64031;SDS011;50278;47.796;11.968;2022-09-09T15:44:43;1.35;;;0.77;;
64031;SDS011;50278;47.796;11.968;2022-09-09T15:47:11;1.45;;;0.68;;
64031;SDS011;50278;47.796;11.968;2022-09-09T15:49:38;0.98;;;0.50;;
64031;SDS011;50278;47.796;11.968;2022-09-09T15:52:04;1.65;;;0.57;;
64031;SDS011;50278;47.796;11.968;2022-09-09T15:54:33;3.08;;;0.63;;
64031;SDS011;50278;47.796;11.968;2022-09-09T15:57:01;1.40;;;0.50;;
64031;SDS011;50278;47.796;11.968;2022-09-09T15:59:29;1.00;;;0.30;;
64031;SDS011;50278;47.796;11.968;2022-09-09T16:01:56;1.05;;;0.60;;
64031;SDS011;50278;47.796;11.968;2022-09-09T16:04:24;0.70;;;0.40;;
64031;SDS011;50278;47.796;11.968;2022-09-09T16:06:51;1.48;;;0.65;;
64031;SDS011;50278;47.796;11.968;2022-09-09T16:09:18;1.92;;;0.80;;
64031;SDS011;50278;47.796;11.968;2022-09-09T16:11:44;2.47;;;1.33;;
64031;SDS011;50278;47.796;11.968;2022-09-09T16:14:11;1.80;;;1.20;;
64031;SDS011;50278;47.796;11.968;2022-09-09T16:16:38;2.42;;;0.85;;
64031;SDS011;50278;47.796;11.968;2022-09-09T16:19:07;1.17;;;0.68;;
64031;SDS011;50278;47.796;11.968;2022-09-09T16:21:53;1.08;;;0.88;;
64031;SDS011;50278;47.796;11.968;2022-09-09T16:24:18;1.65;;;0.70;;
64031;SDS011;50278;47.796;11.968;2022-09-09T16:26:48;3.60;;;0.70;;
64031;SDS011;50278;47.796;11.968;2022-09-09T16:29:16;1.48;;;0.95;;
64031;SDS011;50278;47.796;11.968;2022-09-09T16:31:43;2.40;;;0.85;;
64031;SDS011;50278;47.796;11.968;2022-09-09T16:34:09;1.35;;;0.63;;
64031;SDS011;50278;47.796;11.968;2022-09-09T16:36:36;2.75;;;1.05;;
64031;SDS011;50278;47.796;11.968;2022-09-09T16:39:11;1.67;;;0.50;;
64031;SDS011;50278;47.796;11.968;2022-09-09T16:41:41;1.05;;;0.80;;
64031;SDS011;50278;47.796;11.968;2022-09-09T16:44:09;0.90;;;0.52;;
64031;SDS011;50278;47.796;11.968;2022-09-09T16:46:39;1.92;;;0.50;;
64031;SDS011;50278;47.796;11.968;2022-09-09T16:49:07;2.78;;;0.93;;
64031;SDS011;50278;47.796;11.968;2022-09-09T16:51:38;1.67;;;1.10;;
64031;SDS011;50278;47.796;11.968;2022-09-09T16:54:08;1.25;;;0.75;;
64031;SDS011;50278;47.796;11.968;2022-09-09T16:56:36;3.08;;;0.55;;
64031;SDS011;50278;47.796;11.968;2022-09-09T16:59:04;1.15;;;0.60;;
64031;SDS011;50278;47.796;11.968;2022-09-09T17:01:32;2.40;;;1.13;;
64031;SDS011;50278;47.796;11.968;2022-09-09T17:04:03;3.78;;;1.60;;
64031;SDS011;50278;47.796;11.968;2022-09-09T17:06:31;3.65;;;1.20;;
64031;SDS011;50278;47.796;11.968;2022-09-09T17:09:04;1.25;;;0.80;;